Time;durP1;ratioP1;P1;durP2;ratioP2;P2;SDS_P1;SDS_P2;PMS_P1;PMS_P2;Temp;Humidity;BMP_temperature;BMP_pressure;BME280_temperature;BME280_humidity;BME280_pressure;Samples;Min_cycle;Max_cycle;Signal;HPM_P1;HPM_P2
2021/03/14 00:00:48;;;;;;;1.60;1.30;;;5.10;98.20;;;;;;5022834;28;20545;-76
2021/03/14 00:03:17;;;;;;;1.60;1.30;;;5.00;98.20;;;;;;5028163;28;20494;-77
2021/03/14 00:05:46;;;;;;;1.60;1.43;;;5.00;98.20;;;;;;5018010;28;20466;-75
2021/03/14 00:08:14;;;;;;;1.60;1.40;;;5.00;98.20;;;;;;4997411;28;20492;-78
2021/03/14 00:10:41;;;;;;;1.60;1.30;;;4.90;98.20;;;;;;5012144;28;20824;-74
2021/03/14 00:13:09;;;;;;;1.60;1.40;;;4.90;98.20;;;;;;5009265;28;20483;-76
2021/03/14 00:15:35;;;;;;;1.60;1.30;;;4.80;98.20;;;;;;5018664;28;20563;-77
2021/03/14 00:18:01;;;;;;;1.60;1.40;;;4.80;98.20;;;;;;4994131;28;20472;-77
2021/03/14 00:20:28;;;;;;;1.60;1.40;;;4.80;98.20;;;;;;5017456;28;20483;-76
2021/03/14 00:22:55;;;;;;;1.60;1.40;;;4.80;98.20;;;;;;5016926;28;20514;-75
2021/03/14 00:25:21;;;;;;;1.60;1.40;;;4.70;98.20;;;;;;5022275;28;20462;-77
2021/03/14 00:27:47;;;;;;;1.60;1.30;;;4.70;98.20;;;;;;5015014;28;20464;-77
2021/03/14 00:30:16;;;;;;;1.60;1.30;;;4.70;98.20;;;;;;5022645;28;20473;-76
2021/03/14 00:32:43;;;;;;;1.60;1.40;;;4.70;98.20;;;;;;5015757;28;20479;-76
2021/03/14 00:35:12;;;;;;;1.60;1.30;;;4.70;98.20;;;;;;5022756;28;20816;-76
2021/03/14 00:37:39;;;;;;;1.60;1.30;;;4.70;98.20;;;;;;5024001;28;20595;-77
2021/03/14 00:40:07;;;;;;;1.60;1.40;;;4.80;98.20;;;;;;5017988;28;20496;-75
2021/03/14 00:42:33;;;;;;;1.60;1.50;;;4.80;98.20;;;;;;5015478;28;20471;-75
2021/03/14 00:44:59;;;;;;;1.60;1.50;;;4.80;98.20;;;;;;5024724;28;20459;-76
2021/03/14 00:47:26;;;;;;;1.60;1.30;;;4.80;98.20;;;;;;5018849;28;20491;-76
2021/03/14 00:49:52;;;;;;;1.60;1.30;;;4.80;98.20;;;;;;5024364;28;21142;-78
2021/03/14 00:52:18;;;;;;;1.60;1.40;;;4.90;98.20;;;;;;5022598;28;20474;-77
2021/03/14 00:54:46;;;;;;;1.60;1.30;;;4.90;98.20;;;;;;5026184;28;20467;-76
2021/03/14 00:57:12;;;;;;;1.60;1.40;;;4.90;98.20;;;;;;5012896;28;20475;-78
2021/03/14 00:59:38;;;;;;;1.60;1.40;;;4.90;98.20;;;;;;5022504;28;20467;-76
2021/03/14 01:02:05;;;;;;;1.60;1.40;;;4.90;98.20;;;;;;5004088;28;20547;-76
2021/03/14 01:04:31;;;;;;;1.60;1.40;;;4.90;98.20;;;;;;5020833;28;20495;-76
2021/03/14 01:06:57;;;;;;;1.60;1.40;;;4.90;98.20;;;;;;5008952;28;20483;-76
2021/03/14 01:09:23;;;;;;;1.60;1.40;;;4.90;98.20;;;;;;5020469;28;20538;-74
2021/03/14 01:11:51;;;;;;;1.60;1.30;;;4.90;98.20;;;;;;5013349;28;20482;-74
2021/03/14 01:14:17;;;;;;;1.60;1.30;;;4.90;98.20;;;;;;5023439;28;20497;-75
2021/03/14 01:16:43;;;;;;;1.60;1.30;;;5.00;98.20;;;;;;5014780;28;20686;-75
2021/03/14 01:19:10;;;;;;;1.60;1.40;;;5.00;98.20;;;;;;5021237;28;20533;-77
2021/03/14 01:21:36;;;;;;;1.60;1.30;;;5.00;98.20;;;;;;5012959;28;20563;-76
2021/03/14 01:24:03;;;;;;;1.60;1.30;;;5.10;98.20;;;;;;5019334;28;20546;-76
2021/03/14 01:26:29;;;;;;;1.60;1.40;;;5.10;98.20;;;;;;5010822;28;20510;-76
2021/03/14 01:28:56;;;;;;;1.60;1.30;;;5.10;98.20;;;;;;5028668;28;20800;-76
2021/03/14 01:31:22;;;;;;;1.60;1.30;;;5.10;98.20;;;;;;5018720;28;20478;-76
2021/03/14 01:33:49;;;;;;;1.60;1.43;;;5.10;98.20;;;;;;5025665;28;20483;-76
2021/03/14 01:36:16;;;;;;;1.60;1.50;;;5.10;98.20;;;;;;5013002;28;20475;-78
2021/03/14 01:38:42;;;;;;;1.60;1.30;;;5.10;98.20;;;;;;5026302;28;20468;-74
2021/03/14 01:41:09;;;;;;;1.60;1.40;;;5.10;98.20;;;;;;5019289;28;20525;-75
2021/03/14 01:43:36;;;;;;;1.60;1.43;;;5.10;98.20;;;;;;5021916;28;20553;-75
2021/03/14 01:46:04;;;;;;;1.60;1.50;;;5.10;98.20;;;;;;5012127;28;20577;-77
2021/03/14 01:48:32;;;;;;;1.60;1.40;;;5.10;98.20;;;;;;5025624;28;20460;-75
2021/03/14 01:50:58;;;;;;;1.60;1.30;;;5.10;98.20;;;;;;5015942;28;20455;-77
2021/03/14 01:53:25;;;;;;;1.83;1.73;;;5.20;98.20;;;;;;5020231;28;20487;-76
2021/03/14 01:55:51;;;;;;;1.60;1.30;;;5.20;98.20;;;;;;5012547;28;20471;-76
2021/03/14 01:58:20;;;;;;;1.60;1.40;;;5.20;98.20;;;;;;5027475;28;20459;-76
2021/03/14 02:00:47;;;;;;;1.60;1.30;;;5.20;98.20;;;;;;5023587;28;20510;-75
2021/03/14 02:03:14;;;;;;;1.60;1.30;;;5.20;98.20;;;;;;5027378;28;20499;-75
2021/03/14 02:05:41;;;;;;;1.60;1.30;;;5.20;98.20;;;;;;5024322;28;20472;-76
2021/03/14 02:08:07;;;;;;;1.60;1.30;;;5.20;98.20;;;;;;5004303;28;20556;-77
2021/03/14 02:10:36;;;;;;;1.60;1.33;;;5.20;98.20;;;;;;5025453;28;20463;-77
2021/03/14 02:13:08;;;;;;;1.57;1.30;;;5.20;98.20;;;;;;5021498;28;20486;-77
2021/03/14 02:15:44;;;;;;;1.60;1.30;;;5.20;98.20;;;;;;5025545;28;20463;-76
2021/03/14 02:18:12;;;;;;;1.60;1.40;;;5.20;98.20;;;;;;5019616;28;20478;-76
2021/03/14 02:20:41;;;;;;;1.60;1.30;;;5.20;98.20;;;;;;5024682;28;20505;-76
2021/03/14 02:23:26;;;;;;;1.57;1.30;;;5.20;98.20;;;;;;5029509;28;20490;-77
2021/03/14 02:25:59;;;;;;;1.60;1.30;;;5.20;98.20;;;;;;5016640;28;20455;-77
2021/03/14 02:28:27;;;;;;;1.60;1.50;;;5.20;98.20;;;;;;5021383;28;21063;-75
2021/03/14 02:30:54;;;;;;;1.60;1.30;;;5.20;98.20;;;;;;5013291;28;20455;-77
2021/03/14 02:33:23;;;;;;;1.60;1.30;;;5.20;98.20;;;;;;5029258;28;20482;-76
2021/03/14 02:35:53;;;;;;;1.60;1.30;;;5.20;98.20;;;;;;5017521;28;20466;-75
2021/03/14 02:38:21;;;;;;;1.60;1.30;;;5.20;98.20;;;;;;5029823;28;20456;-75
2021/03/14 02:40:48;;;;;;;1.60;1.30;;;5.20;98.20;;;;;;5026663;28;20492;-76
2021/03/14 02:43:14;;;;;;;1.60;1.30;;;5.20;98.20;;;;;;5006409;28;21056;-75
2021/03/14 02:45:42;;;;;;;1.60;1.33;;;5.20;98.20;;;;;;5026883;28;20463;-74
2021/03/14 02:48:10;;;;;;;1.60;1.30;;;5.20;98.20;;;;;;5007416;28;20479;-75
2021/03/14 02:50:37;;;;;;;1.60;1.30;;;5.20;98.20;;;;;;5033470;28;20464;-75
2021/03/14 02:53:05;;;;;;;1.60;1.30;;;5.20;98.20;;;;;;5019612;28;20507;-75
2021/03/14 02:55:32;;;;;;;1.60;1.50;;;5.20;98.20;;;;;;5025603;28;20866;-75
2021/03/14 02:57:59;;;;;;;1.60;1.30;;;5.20;98.20;;;;;;5019040;28;20491;-75
2021/03/14 03:00:28;;;;;;;1.60;1.40;;;5.20;98.20;;;;;;5030875;28;20517;-77
2021/03/14 03:02:56;;;;;;;1.60;1.40;;;5.20;98.20;;;;;;5022751;28;20483;-75
2021/03/14 03:05:24;;;;;;;1.60;1.50;;;5.20;98.20;;;;;;5024558;28;20470;-77
2021/03/14 03:07:53;;;;;;;1.60;1.30;;;5.10;98.20;;;;;;5018159;28;20479;-76
2021/03/14 03:10:22;;;;;;;1.60;1.40;;;5.10;98.20;;;;;;5024373;28;20455;-75
2021/03/14 03:12:49;;;;;;;1.60;1.30;;;5.10;98.20;;;;;;5019422;28;20487;-75
2021/03/14 03:15:21;;;;;;;1.60;1.30;;;5.00;98.20;;;;;;5023193;28;20463;-75
2021/03/14 03:17:49;;;;;;;1.60;1.30;;;5.00;98.20;;;;;;5021049;28;20506;-75
2021/03/14 03:20:17;;;;;;;1.60;1.40;;;4.90;98.20;;;;;;5018257;28;20492;-75
2021/03/14 03:22:44;;;;;;;1.60;1.30;;;4.90;98.20;;;;;;5019094;28;20491;-75
2021/03/14 03:25:11;;;;;;;1.60;1.30;;;4.90;98.20;;;;;;5024024;28;20474;-77
2021/03/14 03:27:38;;;;;;;1.60;1.50;;;4.80;98.20;;;;;;5017541;28;20472;-77
2021/03/14 03:30:05;;;;;;;1.60;1.30;;;4.80;98.20;;;;;;5026287;28;20459;-75
2021/03/14 03:32:31;;;;;;;2.07;1.87;;;4.80;98.20;;;;;;5019532;28;20537;-77
2021/03/14 03:34:58;;;;;;;1.57;1.30;;;4.80;98.20;;;;;;5020452;28;20464;-75
2021/03/14 03:37:25;;;;;;;1.60;1.37;;;4.80;98.20;;;;;;5019367;28;20573;-75
2021/03/14 03:39:51;;;;;;;1.60;1.50;;;4.80;98.20;;;;;;5024981;28;20520;-74
2021/03/14 03:42:21;;;;;;;1.60;1.30;;;4.80;98.20;;;;;;5029654;28;20483;-75
2021/03/14 03:44:48;;;;;;;1.60;1.30;;;4.80;98.20;;;;;;5018393;28;20472;-75
2021/03/14 03:47:17;;;;;;;1.60;1.50;;;4.80;98.20;;;;;;5015923;28;20615;-75
2021/03/14 03:49:49;;;;;;;1.60;1.40;;;4.80;98.20;;;;;;5028115;28;20459;-75
2021/03/14 03:52:17;;;;;;;1.60;1.30;;;4.80;98.20;;;;;;5019625;28;20960;-75
2021/03/14 03:54:47;;;;;;;1.60;1.40;;;4.80;98.20;;;;;;5023038;28;20470;-75
2021/03/14 03:57:15;;;;;;;1.60;1.50;;;4.80;98.20;;;;;;5017270;28;20482;-75
2021/03/14 03:59:43;;;;;;;1.60;1.43;;;4.80;98.20;;;;;;5030666;28;20464;-76
2021/03/14 04:02:11;;;;;;;1.60;1.40;;;4.90;98.20;;;;;;5006614;28;20529;-74
2021/03/14 04:04:39;;;;;;;1.60;1.43;;;4.90;98.20;;;;;;5015937;28;20452;-75
2021/03/14 04:07:06;;;;;;;1.60;1.40;;;4.90;98.20;;;;;;5019705;28;20890;-77
2021/03/14 04:09:32;;;;;;;1.70;1.60;;;4.90;98.20;;;;;;5021928;28;20982;-75
2021/03/14 04:12:00;;;;;;;1.60;1.40;;;4.90;98.20;;;;;;5017347;28;20476;-76
2021/03/14 04:14:29;;;;;;;1.60;1.40;;;4.90;98.20;;;;;;5023283;28;20483;-75
2021/03/14 04:16:56;;;;;;;1.60;1.40;;;4.90;98.20;;;;;;5021791;28;20806;-75
2021/03/14 04:19:26;;;;;;;1.60;1.30;;;4.90;98.20;;;;;;5031567;28;20459;-75
2021/03/14 04:21:53;;;;;;;1.60;1.40;;;4.90;98.20;;;;;;5017346;28;20486;-75
2021/03/14 04:24:21;;;;;;;1.60;1.30;;;4.90;98.20;;;;;;5027444;28;20490;-75
2021/03/14 04:26:48;;;;;;;1.60;1.40;;;4.80;98.20;;;;;;5017701;28;20476;-75
2021/03/14 04:29:16;;;;;;;1.60;1.30;;;4.90;98.20;;;;;;5021747;28;20464;-75
2021/03/14 04:31:45;;;;;;;1.60;1.40;;;4.90;98.20;;;;;;5017211;28;20483;-75
2021/03/14 04:34:13;;;;;;;1.60;1.30;;;4.80;98.20;;;;;;5016804;28;21014;-75
2021/03/14 04:36:41;;;;;;;1.60;1.30;;;4.90;98.20;;;;;;5015106;28;20525;-75
2021/03/14 04:39:09;;;;;;;1.60;1.30;;;4.90;98.20;;;;;;5021463;28;20801;-74
2021/03/14 04:41:37;;;;;;;1.60;1.40;;;4.80;98.20;;;;;;5014949;28;20486;-75
2021/03/14 04:44:05;;;;;;;1.60;1.30;;;4.80;98.20;;;;;;5022889;28;20544;-75
2021/03/14 04:46:33;;;;;;;1.60;1.30;;;4.80;98.20;;;;;;5021557;28;20852;-77
2021/03/14 04:48:59;;;;;;;1.60;1.50;;;4.80;98.20;;;;;;5020178;28;20459;-75
2021/03/14 04:51:29;;;;;;;1.60;1.30;;;4.80;98.20;;;;;;5011232;28;20491;-74
2021/03/14 04:53:57;;;;;;;1.60;1.40;;;4.80;98.20;;;;;;5027539;28;20515;-75
2021/03/14 04:56:26;;;;;;;1.60;1.40;;;4.80;98.20;;;;;;5015754;28;20483;-76
2021/03/14 04:58:55;;;;;;;1.60;1.40;;;4.80;98.20;;;;;;5030195;28;20463;-76
2021/03/14 05:01:22;;;;;;;1.60;1.30;;;4.80;98.20;;;;;;5013897;28;20509;-75
2021/03/14 05:03:53;;;;;;;1.60;1.40;;;4.80;98.20;;;;;;5021429;28;20494;-77
2021/03/14 05:06:20;;;;;;;1.60;1.30;;;4.80;98.20;;;;;;5010735;28;20487;-76
2021/03/14 05:08:48;;;;;;;1.60;1.30;;;4.80;98.20;;;;;;5017162;28;20479;-76
2021/03/14 05:11:16;;;;;;;1.60;1.30;;;4.80;98.20;;;;;;5014024;28;20481;-76
2021/03/14 05:13:43;;;;;;;1.60;1.40;;;4.80;98.20;;;;;;5028138;28;20540;-75
2021/03/14 05:16:10;;;;;;;1.60;1.30;;;4.80;98.20;;;;;;5010407;28;20793;-76
2021/03/14 05:18:37;;;;;;;1.60;1.30;;;4.70;98.20;;;;;;5025083;28;20509;-74
2021/03/14 05:21:05;;;;;;;1.57;1.30;;;4.70;98.20;;;;;;5017583;28;20479;-76
2021/03/14 05:23:32;;;;;;;1.60;1.40;;;4.70;98.20;;;;;;5030932;28;20574;-77
2021/03/14 05:26:00;;;;;;;1.60;1.30;;;4.70;98.20;;;;;;5012355;28;20996;-75
2021/03/14 05:28:27;;;;;;;1.60;1.20;;;4.60;98.20;;;;;;5024988;28;20962;-77
2021/03/14 05:30:53;;;;;;;1.60;1.30;;;4.60;98.20;;;;;;5004932;28;20452;-75
2021/03/14 05:33:20;;;;;;;1.60;1.30;;;4.60;98.20;;;;;;5029840;28;20848;-76
2021/03/14 05:35:46;;;;;;;1.60;1.40;;;4.50;98.20;;;;;;5022614;28;20467;-77
2021/03/14 05:38:13;;;;;;;1.60;1.33;;;4.50;98.20;;;;;;4990027;28;20495;-76
2021/03/14 05:40:39;;;;;;;1.60;1.30;;;4.50;98.20;;;;;;5022498;28;20494;-76
2021/03/14 05:43:06;;;;;;;1.60;1.30;;;4.50;98.20;;;;;;5018695;28;20894;-75
2021/03/14 05:45:33;;;;;;;1.60;1.30;;;4.50;98.20;;;;;;5030762;28;20501;-75
2021/03/14 05:47:59;;;;;;;1.60;1.40;;;4.50;98.20;;;;;;5014957;28;20537;-76
2021/03/14 05:50:28;;;;;;;1.60;1.40;;;4.50;98.20;;;;;;5026907;28;20456;-76
2021/03/14 05:52:55;;;;;;;1.60;1.40;;;4.50;98.20;;;;;;5015547;28;20487;-76
2021/03/14 05:55:24;;;;;;;1.60;1.30;;;4.50;98.20;;;;;;5019173;28;20475;-76
2021/03/14 05:57:52;;;;;;;1.60;1.40;;;4.50;98.20;;;;;;5017413;28;21107;-77
2021/03/14 06:00:26;;;;;;;1.60;1.37;;;4.50;98.20;;;;;;5027310;28;20491;-78
2021/03/14 06:02:54;;;;;;;1.60;1.30;;;4.50;98.20;;;;;;5020361;28;20533;-76
2021/03/14 06:05:21;;;;;;;1.60;1.30;;;4.50;98.20;;;;;;5022525;28;20474;-77
2021/03/14 06:07:47;;;;;;;1.60;1.40;;;4.50;98.20;;;;;;5019449;28;20562;-76
2021/03/14 06:10:16;;;;;;;1.60;1.30;;;4.60;98.20;;;;;;5019882;28;20462;-75
2021/03/14 06:12:44;;;;;;;1.60;1.30;;;4.60;98.20;;;;;;5017864;28;20487;-77
2021/03/14 06:15:12;;;;;;;1.60;1.40;;;4.60;98.20;;;;;;5023514;28;20486;-75
2021/03/14 06:17:38;;;;;;;1.60;1.40;;;4.60;98.20;;;;;;5017674;28;20490;-75
2021/03/14 06:20:06;;;;;;;1.67;1.50;;;4.60;98.20;;;;;;5019709;28;20455;-77
2021/03/14 06:22:32;;;;;;;1.60;1.30;;;4.70;98.20;;;;;;5016112;28;20562;-74
2021/03/14 06:24:58;;;;;;;1.60;1.30;;;4.70;98.20;;;;;;5026042;28;20467;-77
2021/03/14 06:27:33;;;;;;;1.60;1.30;;;4.70;98.20;;;;;;5020335;28;20891;-77
2021/03/14 06:30:00;;;;;;;1.60;1.30;;;4.80;98.20;;;;;;5023421;28;20459;-75
2021/03/14 06:32:27;;;;;;;1.60;1.40;;;4.80;98.20;;;;;;5018909;28;20479;-75
2021/03/14 06:35:12;;;;;;;1.60;1.40;;;4.80;98.20;;;;;;5029256;28;20470;-75
2021/03/14 06:37:38;;;;;;;1.60;1.40;;;4.80;98.20;;;;;;5012716;28;20478;-75
2021/03/14 06:40:10;;;;;;;1.60;1.30;;;4.80;98.20;;;;;;5021789;28;20467;-76
2021/03/14 06:42:38;;;;;;;1.60;1.40;;;4.80;98.20;;;;;;5007395;28;20491;-75
2021/03/14 06:45:08;;;;;;;1.60;1.40;;;4.80;98.20;;;;;;5025841;28;20658;-74
2021/03/14 06:47:44;;;;;;;1.60;1.30;;;4.80;98.20;;;;;;5017435;28;20481;-76
2021/03/14 06:50:18;;;;;;;1.60;1.40;;;4.90;98.20;;;;;;5024528;28;20474;-75
2021/03/14 06:53:06;;;;;;;1.60;1.30;;;4.90;98.20;;;;;;5006479;28;20519;-75
2021/03/14 06:55:33;;;;;;;1.57;1.30;;;4.90;98.20;;;;;;5024039;28;20490;-76
2021/03/14 06:58:22;;;;;;;1.60;1.30;;;4.90;98.20;;;;;;5011898;28;20480;-76
2021/03/14 07:01:22;;;;;;;1.60;1.50;;;5.00;98.20;;;;;;5016260;28;20560;-76
2021/03/14 07:03:50;;;;;;;1.60;1.43;;;5.00;98.20;;;;;;4940077;28;21138;-75
2021/03/14 07:06:19;;;;;;;1.60;1.40;;;5.10;98.20;;;;;;4929306;29;20584;-75
2021/03/14 07:08:47;;;;;;;1.60;1.30;;;5.10;98.20;;;;;;4981667;28;20456;-75
2021/03/14 07:11:32;;;;;;;1.60;1.30;;;5.10;98.20;;;;;;5018679;28;20537;-74
2021/03/14 07:13:59;;;;;;;1.60;1.47;;;5.20;98.20;;;;;;5020269;28;20494;-75
2021/03/14 07:16:41;;;;;;;1.53;1.23;;;5.20;98.20;;;;;;5016977;28;20486;-75
2021/03/14 07:19:07;;;;;;;1.53;1.20;;;5.30;98.20;;;;;;5024342;28;20486;-76
2021/03/14 07:21:34;;;;;;;1.60;1.30;;;5.40;98.20;;;;;;5013502;28;20518;-77
2021/03/14 07:24:00;;;;;;;1.60;1.40;;;5.40;98.20;;;;;;5022173;28;20479;-76
2021/03/14 07:26:40;;;;;;;1.60;1.40;;;5.40;98.20;;;;;;5016222;28;20494;-76
2021/03/14 07:29:07;;;;;;;1.60;1.37;;;5.50;98.20;;;;;;5026362;28;20459;-77
2021/03/14 07:31:35;;;;;;;1.60;1.20;;;5.50;98.20;;;;;;5014743;28;20483;-76
2021/03/14 07:34:04;;;;;;;1.57;1.23;;;5.60;98.20;;;;;;5032970;28;20487;-75
2021/03/14 07:36:30;;;;;;;1.60;1.40;;;5.70;98.20;;;;;;5016364;28;20495;-76
2021/03/14 07:38:57;;;;;;;1.60;1.30;;;5.80;98.20;;;;;;5024341;28;20459;-76
2021/03/14 07:41:25;;;;;;;1.60;1.50;;;5.80;98.20;;;;;;5010866;28;21093;-77
2021/03/14 07:43:52;;;;;;;1.60;1.30;;;5.90;98.20;;;;;;5011031;28;20806;-76
2021/03/14 07:46:23;;;;;;;1.60;1.30;;;6.00;98.20;;;;;;5017823;28;20487;-79
2021/03/14 07:48:51;;;;;;;1.60;1.40;;;6.00;98.20;;;;;;5025574;28;20551;-77
2021/03/14 07:51:19;;;;;;;1.60;1.40;;;6.00;98.20;;;;;;5016463;28;20490;-77
2021/03/14 07:53:46;;;;;;;1.60;1.20;;;5.90;98.20;;;;;;5028914;28;20479;-77
2021/03/14 07:56:12;;;;;;;1.60;1.30;;;5.90;98.20;;;;;;5015860;28;21034;-78
2021/03/14 07:58:39;;;;;;;1.60;1.30;;;5.80;98.20;;;;;;5008113;28;20556;-77
2021/03/14 08:01:25;;;;;;;1.57;1.30;;;5.80;98.20;;;;;;5010390;28;20477;-75
2021/03/14 08:03:52;;;;;;;1.60;1.30;;;5.80;98.20;;;;;;5020172;28;20519;-79
2021/03/14 08:06:49;;;;;;;1.60;1.40;;;5.80;98.20;;;;;;5007919;28;21059;-78
2021/03/14 08:09:43;;;;;;;1.60;1.30;;;5.80;98.20;;;;;;5021649;28;20951;-77
2021/03/14 08:12:37;;;;;;;1.70;1.60;;;5.80;98.20;;;;;;5008768;28;20503;-78
2021/03/14 08:15:21;;;;;;;1.60;1.30;;;5.90;98.20;;;;;;5023377;28;20467;-79
2021/03/14 08:17:47;;;;;;;1.60;1.37;;;5.90;98.20;;;;;;5021433;28;20599;-78
2021/03/14 08:20:14;;;;;;;1.60;1.30;;;5.90;98.20;;;;;;5024365;28;20791;-79
2021/03/14 08:22:51;;;;;;;1.53;1.20;;;5.90;98.20;;;;;;5018005;28;20487;-80
2021/03/14 08:25:27;;;;;;;1.60;1.40;;;5.90;98.20;;;;;;5021457;28;20963;-79
2021/03/14 08:27:58;;;;;;;1.60;1.30;;;6.00;98.20;;;;;;5021432;28;20478;-78
2021/03/14 08:30:47;;;;;;;1.60;1.30;;;6.00;98.20;;;;;;5022564;28;20546;-78
2021/03/14 08:33:26;;;;;;;1.60;1.50;;;6.00;98.20;;;;;;4992677;28;20491;-76
2021/03/14 08:35:53;;;;;;;1.60;1.30;;;6.10;98.20;;;;;;5017338;28;20467;-78
2021/03/14 08:38:29;;;;;;;1.60;1.40;;;6.20;98.20;;;;;;5020532;28;20471;-77
2021/03/14 08:41:22;;;;;;;1.60;1.40;;;6.20;98.20;;;;;;5012133;28;20474;-77
2021/03/14 08:43:50;;;;;;;1.60;1.40;;;6.30;98.20;;;;;;5014292;28;20486;-75
2021/03/14 08:46:16;;;;;;;1.60;1.30;;;6.30;98.20;;;;;;5012717;28;20562;-79
2021/03/14 08:48:43;;;;;;;1.60;1.40;;;6.30;98.20;;;;;;5026724;28;20536;-78
2021/03/14 08:51:10;;;;;;;1.60;1.40;;;6.30;98.20;;;;;;5019816;28;20527;-77
2021/03/14 08:53:41;;;;;;;1.60;1.30;;;6.30;98.20;;;;;;5034180;28;21000;-79
2021/03/14 08:56:10;;;;;;;1.57;1.20;;;6.30;98.20;;;;;;5006348;28;20696;-78
2021/03/14 08:58:37;;;;;;;1.60;1.50;;;6.20;98.20;;;;;;5027732;28;20562;-77
2021/03/14 09:01:08;;;;;;;1.80;1.70;;;6.20;98.20;;;;;;5018045;28;20475;-78
2021/03/14 09:03:42;;;;;;;1.90;1.80;;;6.20;98.20;;;;;;5030525;28;20595;-78
2021/03/14 09:06:26;;;;;;;1.60;1.30;;;6.20;98.20;;;;;;5013384;28;20483;-79
2021/03/14 09:08:59;;;;;;;1.60;1.30;;;6.20;98.20;;;;;;5019606;28;20498;-77
2021/03/14 09:11:38;;;;;;;1.60;1.50;;;6.20;98.20;;;;;;5013896;28;20484;-76
2021/03/14 09:14:32;;;;;;;1.60;1.30;;;6.20;98.20;;;;;;5021130;28;20486;-79
2021/03/14 09:17:00;;;;;;;1.60;1.30;;;6.20;98.20;;;;;;5010723;28;20478;-76
2021/03/14 09:19:30;;;;;;;1.60;1.30;;;6.10;98.20;;;;;;5030921;28;20467;-77
2021/03/14 09:21:58;;;;;;;1.60;1.40;;;6.10;98.20;;;;;;5013843;28;20488;-77
2021/03/14 09:24:31;;;;;;;1.57;1.30;;;6.10;98.20;;;;;;5018070;28;20484;-80
2021/03/14 09:26:59;;;;;;;1.60;1.40;;;6.10;98.20;;;;;;5015363;28;20476;-80
2021/03/14 09:29:41;;;;;;;1.60;1.30;;;6.10;98.20;;;;;;5029561;28;20462;-80
2021/03/14 09:32:20;;;;;;;1.60;1.37;;;6.10;98.20;;;;;;5014880;28;20611;-80
2021/03/14 09:34:47;;;;;;;1.60;1.20;;;6.10;98.20;;;;;;5025600;28;20548;-78
2021/03/14 09:37:27;;;;;;;1.57;1.23;;;6.10;98.20;;;;;;5021414;28;20483;-80
2021/03/14 09:40:08;;;;;;;1.60;1.30;;;6.10;98.20;;;;;;5028046;28;20476;-78
2021/03/14 09:42:34;;;;;;;1.60;1.40;;;6.00;98.20;;;;;;5022707;28;20728;-78
2021/03/14 09:45:07;;;;;;;1.60;1.43;;;6.00;98.20;;;;;;5014422;28;20757;-79
2021/03/14 09:47:33;;;;;;;1.60;1.33;;;6.00;98.20;;;;;;5015606;28;20540;-76
2021/03/14 09:50:01;;;;;;;1.60;1.33;;;6.00;98.20;;;;;;5020526;28;20835;-78
2021/03/14 09:52:27;;;;;;;1.60;1.20;;;6.10;98.20;;;;;;5019756;28;20853;-78
2021/03/14 09:54:53;;;;;;;1.53;1.30;;;6.10;98.20;;;;;;5025349;28;21001;-77
2021/03/14 09:57:21;;;;;;;1.60;1.37;;;6.10;98.20;;;;;;5013229;28;20895;-77
2021/03/14 09:59:48;;;;;;;1.60;1.30;;;6.20;98.20;;;;;;5015200;28;20823;-78
2021/03/14 10:02:15;;;;;;;1.60;1.30;;;6.30;98.20;;;;;;5014002;28;20534;-76
2021/03/14 10:04:45;;;;;;;1.57;1.23;;;6.50;98.20;;;;;;5022043;28;20472;-77
2021/03/14 10:07:20;;;;;;;1.60;1.30;;;6.80;98.20;;;;;;5013262;28;20919;-76
2021/03/14 10:09:47;;;;;;;1.60;1.40;;;7.00;98.20;;;;;;5014611;28;20540;-76
2021/03/14 10:12:14;;;;;;;1.60;1.20;;;7.20;98.20;;;;;;5013957;28;21071;-75
2021/03/14 10:14:42;;;;;;;1.60;1.20;;;7.40;98.20;;;;;;5018833;28;20464;-76
2021/03/14 10:17:10;;;;;;;1.60;1.30;;;7.60;98.20;;;;;;5015836;28;21060;-76
2021/03/14 10:19:37;;;;;;;1.60;1.20;;;7.60;98.20;;;;;;5015397;28;20472;-77
2021/03/14 10:22:03;;;;;;;1.60;1.20;;;7.60;98.20;;;;;;5020146;28;20481;-77
2021/03/14 10:24:31;;;;;;;1.57;1.20;;;7.60;98.20;;;;;;5019412;28;20787;-76
2021/03/14 10:27:00;;;;;;;1.60;1.30;;;7.50;98.20;;;;;;5012219;28;20486;-76
2021/03/14 10:29:31;;;;;;;1.60;1.30;;;7.40;98.20;;;;;;5020528;28;20506;-78
2021/03/14 10:31:59;;;;;;;1.60;1.33;;;7.30;98.20;;;;;;5015924;28;20508;-79
2021/03/14 10:34:26;;;;;;;1.60;1.20;;;7.20;98.20;;;;;;5021149;28;20483;-77
2021/03/14 10:36:53;;;;;;;1.60;1.20;;;7.10;98.20;;;;;;5011231;28;20491;-80
2021/03/14 10:39:26;;;;;;;1.60;1.40;;;7.00;98.20;;;;;;5027715;28;20832;-79
2021/03/14 10:41:54;;;;;;;1.60;1.30;;;7.00;98.20;;;;;;5009242;28;20494;-76
2021/03/14 10:44:23;;;;;;;1.60;1.20;;;7.00;98.20;;;;;;5020484;28;20487;-76
2021/03/14 10:46:51;;;;;;;1.60;1.27;;;6.90;98.20;;;;;;5010910;28;20494;-77
2021/03/14 10:49:27;;;;;;;1.57;1.20;;;6.90;98.20;;;;;;5017489;28;20519;-77
2021/03/14 10:51:54;;;;;;;1.57;1.20;;;7.00;98.20;;;;;;5010342;28;20486;-75
2021/03/14 10:54:21;;;;;;;1.60;1.20;;;7.20;98.20;;;;;;5018259;28;20506;-75
2021/03/14 10:56:49;;;;;;;1.60;1.23;;;7.40;98.20;;;;;;5014290;28;20483;-77
2021/03/14 10:59:24;;;;;;;1.60;1.30;;;7.60;98.20;;;;;;5022269;28;20466;-75
2021/03/14 11:01:54;;;;;;;1.60;1.20;;;7.70;98.20;;;;;;5006896;28;20491;-77
2021/03/14 11:04:28;;;;;;;1.57;1.20;;;7.70;98.20;;;;;;5021605;28;20503;-77
2021/03/14 11:06:54;;;;;;;1.53;1.20;;;7.80;98.20;;;;;;5014589;28;20483;-75
2021/03/14 11:09:22;;;;;;;1.57;1.20;;;7.80;98.20;;;;;;5021689;28;20982;-77
2021/03/14 11:11:49;;;;;;;1.57;1.20;;;7.80;98.20;;;;;;5010406;28;20471;-74
2021/03/14 11:14:31;;;;;;;1.60;1.27;;;7.90;98.20;;;;;;5017859;28;20573;-75
2021/03/14 11:17:12;;;;;;;1.60;1.20;;;8.00;98.20;;;;;;5015600;28;20507;-77
2021/03/14 11:19:41;;;;;;;1.60;1.20;;;8.20;98.20;;;;;;5019565;28;20464;-76
2021/03/14 11:22:08;;;;;;;1.60;1.10;;;8.40;98.20;;;;;;5016807;28;20484;-78
2021/03/14 11:24:35;;;;;;;1.60;1.30;;;8.60;98.20;;;;;;5019618;28;20728;-76
2021/03/14 11:27:02;;;;;;;1.60;1.10;;;8.60;98.20;;;;;;5016342;28;20490;-76
2021/03/14 11:29:28;;;;;;;1.50;1.10;;;8.60;98.20;;;;;;5023635;28;20471;-76
2021/03/14 11:31:55;;;;;;;1.60;1.20;;;8.70;98.20;;;;;;5001718;28;20484;-76
2021/03/14 11:34:21;;;;;;;1.60;1.20;;;8.70;98.20;;;;;;5014346;28;20488;-76
2021/03/14 11:36:49;;;;;;;1.60;1.10;;;8.90;98.20;;;;;;5012765;28;20985;-76
2021/03/14 11:39:15;;;;;;;1.60;1.20;;;9.00;98.20;;;;;;5021547;28;20475;-76
2021/03/14 11:41:42;;;;;;;1.60;1.10;;;9.00;98.20;;;;;;5011244;28;20554;-77
2021/03/14 11:44:09;;;;;;;1.60;1.17;;;9.10;98.20;;;;;;5020637;28;20491;-76
2021/03/14 11:46:35;;;;;;;1.60;1.10;;;9.20;98.20;;;;;;5003268;28;21223;-77
2021/03/14 11:49:02;;;;;;;1.57;1.10;;;9.30;98.20;;;;;;5020762;28;20895;-77
2021/03/14 11:51:28;;;;;;;1.57;1.03;;;9.50;98.20;;;;;;5012753;28;20599;-77
2021/03/14 11:53:58;;;;;;;1.60;1.20;;;9.60;98.20;;;;;;5019263;28;20491;-77
2021/03/14 11:56:24;;;;;;;1.60;1.20;;;9.70;97.70;;;;;;5008149;28;20491;-76
2021/03/14 11:58:51;;;;;;;1.53;1.10;;;9.70;98.00;;;;;;5019748;28;20468;-76
2021/03/14 12:01:17;;;;;;;1.60;1.10;;;9.70;97.40;;;;;;5013353;28;20487;-76
2021/03/14 12:03:44;;;;;;;1.60;1.20;;;9.70;98.00;;;;;;5018132;28;20503;-77
2021/03/14 12:06:11;;;;;;;1.60;1.13;;;9.70;98.10;;;;;;5011504;28;20517;-75
2021/03/14 12:08:37;;;;;;;1.60;1.10;;;9.60;97.30;;;;;;5024536;28;21376;-76
2021/03/14 12:11:06;;;;;;;1.60;1.20;;;9.60;97.50;;;;;;5007394;28;20951;-75
2021/03/14 12:13:33;;;;;;;1.53;1.10;;;9.60;97.90;;;;;;5018218;28;20484;-78
2021/03/14 12:15:59;;;;;;;1.60;1.10;;;9.60;97.80;;;;;;5010976;28;20502;-76
2021/03/14 12:18:26;;;;;;;1.60;1.17;;;9.70;98.20;;;;;;5022565;28;20466;-77
2021/03/14 12:20:52;;;;;;;1.60;1.20;;;9.70;98.00;;;;;;5012328;28;21324;-76
2021/03/14 12:23:18;;;;;;;1.60;1.10;;;9.80;97.50;;;;;;5019723;28;20488;-76
2021/03/14 12:25:45;;;;;;;1.53;1.10;;;10.00;96.30;;;;;;5014378;28;20468;-76
2021/03/14 12:28:12;;;;;;;1.60;1.10;;;10.00;96.60;;;;;;4988353;28;20482;-77
2021/03/14 12:30:39;;;;;;;1.60;1.20;;;10.10;96.30;;;;;;5020193;28;20989;-78
2021/03/14 12:33:05;;;;;;;1.60;1.10;;;10.10;96.80;;;;;;5008964;28;20931;-76
2021/03/14 12:35:32;;;;;;;1.60;1.20;;;10.10;96.60;;;;;;5023156;28;20851;-78
2021/03/14 12:37:59;;;;;;;1.57;1.00;;;10.10;96.00;;;;;;5015867;28;20874;-77
2021/03/14 12:40:26;;;;;;;1.57;1.10;;;10.10;95.90;;;;;;5022908;28;20466;-77
2021/03/14 12:42:52;;;;;;;1.60;1.20;;;10.10;95.60;;;;;;5008329;28;20486;-76
2021/03/14 12:45:22;;;;;;;1.57;1.13;;;10.00;95.90;;;;;;5040313;28;20463;-76
2021/03/14 12:47:48;;;;;;;1.53;1.10;;;10.00;96.00;;;;;;5012481;28;20490;-75
2021/03/14 12:50:15;;;;;;;1.57;1.10;;;10.00;96.00;;;;;;5014613;28;20474;-76
2021/03/14 12:52:42;;;;;;;1.57;1.10;;;10.00;96.40;;;;;;5005548;28;21199;-78
2021/03/14 12:55:09;;;;;;;1.57;1.10;;;10.10;96.30;;;;;;5014648;28;20536;-76
2021/03/14 12:57:36;;;;;;;1.70;1.30;;;10.10;96.50;;;;;;5010003;28;20863;-77
2021/03/14 13:00:04;;;;;;;1.60;1.20;;;10.10;95.90;;;;;;5011349;28;20527;-77
2021/03/14 13:02:31;;;;;;;1.60;1.10;;;10.10;95.80;;;;;;5009313;28;20744;-77
2021/03/14 13:04:59;;;;;;;1.50;1.00;;;10.10;95.60;;;;;;5016685;28;20484;-75